sensor_id;sensor_type;location;lat;lon;timestamp;P1;durP1;ratioP1;P2;durP2;ratioP2
2656;SDS011;1338;48.176;11.792;2022-11-18T00:01:18;4.53;;;3.60;;
2656;SDS011;1338;48.176;11.792;2022-11-18T00:03:48;6.30;;;5.00;;
2656;SDS011;1338;48.176;11.792;2022-11-18T00:06:17;4.43;;;4.03;;
2656;SDS011;1338;48.176;11.792;2022-11-18T00:08:46;4.33;;;4.03;;
2656;SDS011;1338;48.176;11.792;2022-11-18T00:11:16;4.10;;;3.70;;
2656;SDS011;1338;48.176;11.792;2022-11-18T00:13:59;4.20;;;3.57;;
2656;SDS011;1338;48.176;11.792;2022-11-18T00:16:45;3.53;;;3.23;;
2656;SDS011;1338;48.176;11.792;2022-11-18T00:19:14;5.07;;;3.77;;
2656;SDS011;1338;48.176;11.792;2022-11-18T00:21:43;4.00;;;3.60;;
2656;SDS011;1338;48.176;11.792;2022-11-18T00:24:11;4.27;;;3.97;;
2656;SDS011;1338;48.176;11.792;2022-11-18T00:26:40;3.80;;;3.50;;
2656;SDS011;1338;48.176;11.792;2022-11-18T00:29:09;4.57;;;3.80;;
2656;SDS011;1338;48.176;11.792;2022-11-18T00:31:37;3.90;;;3.60;;
2656;SDS011;1338;48.176;11.792;2022-11-18T00:34:06;3.80;;;3.50;;
2656;SDS011;1338;48.176;11.792;2022-11-18T00:36:37;4.03;;;3.40;;
2656;SDS011;1338;48.176;11.792;2022-11-18T00:39:05;5.07;;;4.20;;
2656;SDS011;1338;48.176;11.792;2022-11-18T00:41:33;3.67;;;3.37;;
2656;SDS011;1338;48.176;11.792;2022-11-18T00:44:20;4.60;;;4.20;;
2656;SDS011;1338;48.176;11.792;2022-11-18T00:46:49;4.07;;;3.67;;
2656;SDS011;1338;48.176;11.792;2022-11-18T00:49:17;4.40;;;4.00;;
2656;SDS011;1338;48.176;11.792;2022-11-18T00:51:45;3.80;;;3.10;;
2656;SDS011;1338;48.176;11.792;2022-11-18T00:54:13;3.90;;;3.50;;
2656;SDS011;1338;48.176;11.792;2022-11-18T00:56:41;4.23;;;3.40;;
2656;SDS011;1338;48.176;11.792;2022-11-18T00:59:10;2.73;;;2.53;;
2656;SDS011;1338;48.176;11.792;2022-11-18T01:01:39;3.10;;;2.80;;
2656;SDS011;1338;48.176;11.792;2022-11-18T01:04:07;2.57;;;2.37;;
2656;SDS011;1338;48.176;11.792;2022-11-18T01:06:36;2.63;;;2.43;;
2656;SDS011;1338;48.176;11.792;2022-11-18T01:09:04;2.70;;;2.50;;
2656;SDS011;1338;48.176;11.792;2022-11-18T01:11:32;2.60;;;2.40;;
2656;SDS011;1338;48.176;11.792;2022-11-18T01:14:17;2.90;;;2.60;;
2656;SDS011;1338;48.176;11.792;2022-11-18T01:16:47;3.33;;;2.77;;
2656;SDS011;1338;48.176;11.792;2022-11-18T01:19:16;2.93;;;2.73;;
2656;SDS011;1338;48.176;11.792;2022-11-18T01:21:45;3.60;;;2.67;;
2656;SDS011;1338;48.176;11.792;2022-11-18T01:24:14;2.33;;;2.17;;
2656;SDS011;1338;48.176;11.792;2022-11-18T01:26:42;2.53;;;2.30;;
2656;SDS011;1338;48.176;11.792;2022-11-18T01:29:10;2.60;;;2.40;;
2656;SDS011;1338;48.176;11.792;2022-11-18T01:31:38;2.10;;;2.00;;
2656;SDS011;1338;48.176;11.792;2022-11-18T01:34:27;2.30;;;2.20;;
2656;SDS011;1338;48.176;11.792;2022-11-18T01:36:56;3.00;;;2.17;;
2656;SDS011;1338;48.176;11.792;2022-11-18T01:39:24;2.80;;;2.40;;
2656;SDS011;1338;48.176;11.792;2022-11-18T01:41:52;2.63;;;2.43;;
2656;SDS011;1338;48.176;11.792;2022-11-18T01:47:25;2.53;;;2.33;;
2656;SDS011;1338;48.176;11.792;2022-11-18T01:49:59;2.53;;;2.33;;
2656;SDS011;1338;48.176;11.792;2022-11-18T01:52:29;2.67;;;2.47;;
2656;SDS011;1338;48.176;11.792;2022-11-18T01:55:00;2.57;;;2.37;;
2656;SDS011;1338;48.176;11.792;2022-11-18T01:57:32;3.43;;;2.20;;
2656;SDS011;1338;48.176;11.792;2022-11-18T02:00:01;2.93;;;2.40;;
2656;SDS011;1338;48.176;11.792;2022-11-18T02:02:31;2.37;;;2.17;;
2656;SDS011;1338;48.176;11.792;2022-11-18T02:05:04;2.63;;;2.23;;
2656;SDS011;1338;48.176;11.792;2022-11-18T02:07:34;3.83;;;2.50;;
2656;SDS011;1338;48.176;11.792;2022-11-18T02:10:06;3.03;;;2.73;;
2656;SDS011;1338;48.176;11.792;2022-11-18T02:12:35;2.80;;;2.53;;
2656;SDS011;1338;48.176;11.792;2022-11-18T02:15:04;2.87;;;2.57;;
2656;SDS011;1338;48.176;11.792;2022-11-18T02:17:36;2.33;;;2.13;;
2656;SDS011;1338;48.176;11.792;2022-11-18T02:26:30;2.63;;;1.80;;
2656;SDS011;1338;48.176;11.792;2022-11-18T02:29:28;2.50;;;2.30;;
2656;SDS011;1338;48.176;11.792;2022-11-18T02:31:59;2.53;;;2.33;;
2656;SDS011;1338;48.176;11.792;2022-11-18T02:34:36;2.40;;;2.20;;
2656;SDS011;1338;48.176;11.792;2022-11-18T02:37:11;2.13;;;2.03;;
2656;SDS011;1338;48.176;11.792;2022-11-18T02:39:44;2.60;;;2.40;;
2656;SDS011;1338;48.176;11.792;2022-11-18T02:42:19;3.50;;;2.17;;
2656;SDS011;1338;48.176;11.792;2022-11-18T02:44:54;4.10;;;2.77;;
2656;SDS011;1338;48.176;11.792;2022-11-18T02:47:26;3.00;;;2.13;;
2656;SDS011;1338;48.176;11.792;2022-11-18T02:49:56;2.20;;;2.10;;
2656;SDS011;1338;48.176;11.792;2022-11-18T02:52:28;2.33;;;2.13;;
2656;SDS011;1338;48.176;11.792;2022-11-18T02:54:59;2.63;;;2.13;;
2656;SDS011;1338;48.176;11.792;2022-11-18T02:57:29;2.80;;;2.60;;
2656;SDS011;1338;48.176;11.792;2022-11-18T03:00:00;2.57;;;2.10;;
2656;SDS011;1338;48.176;11.792;2022-11-18T03:02:38;2.63;;;2.43;;
2656;SDS011;1338;48.176;11.792;2022-11-18T03:05:08;2.90;;;2.33;;
2656;SDS011;1338;48.176;11.792;2022-11-18T03:07:44;2.10;;;2.00;;
2656;SDS011;1338;48.176;11.792;2022-11-18T03:10:18;2.67;;;2.47;;
2656;SDS011;1338;48.176;11.792;2022-11-18T03:12:50;2.60;;;2.40;;
2656;SDS011;1338;48.176;11.792;2022-11-18T03:15:28;2.60;;;2.40;;
2656;SDS011;1338;48.176;11.792;2022-11-18T03:18:06;2.77;;;2.40;;
2656;SDS011;1338;48.176;11.792;2022-11-18T03:20:44;2.60;;;2.40;;
2656;SDS011;1338;48.176;11.792;2022-11-18T03:23:18;2.87;;;2.57;;
2656;SDS011;1338;48.176;11.792;2022-11-18T03:25:52;2.53;;;2.33;;
2656;SDS011;1338;48.176;11.792;2022-11-18T03:28:23;2.50;;;2.30;;
2656;SDS011;1338;48.176;11.792;2022-11-18T03:30:56;2.87;;;2.33;;
2656;SDS011;1338;48.176;11.792;2022-11-18T03:33:30;4.33;;;2.10;;
2656;SDS011;1338;48.176;11.792;2022-11-18T03:36:02;3.40;;;2.63;;
2656;SDS011;1338;48.176;11.792;2022-11-18T03:38:33;3.70;;;2.80;;
2656;SDS011;1338;48.176;11.792;2022-11-18T03:41:05;2.27;;;2.10;;
2656;SDS011;1338;48.176;11.792;2022-11-18T03:43:37;2.90;;;2.70;;
2656;SDS011;1338;48.176;11.792;2022-11-18T03:46:10;3.03;;;2.33;;
2656;SDS011;1338;48.176;11.792;2022-11-18T03:48:42;2.93;;;2.60;;
2656;SDS011;1338;48.176;11.792;2022-11-18T03:51:15;2.83;;;2.27;;
2656;SDS011;1338;48.176;11.792;2022-11-18T03:53:47;2.30;;;2.17;;
2656;SDS011;1338;48.176;11.792;2022-11-18T03:56:20;2.40;;;2.30;;
2656;SDS011;1338;48.176;11.792;2022-11-18T03:58:53;2.50;;;2.30;;
2656;SDS011;1338;48.176;11.792;2022-11-18T04:01:29;2.60;;;2.10;;
2656;SDS011;1338;48.176;11.792;2022-11-18T04:04:02;2.47;;;1.70;;
2656;SDS011;1338;48.176;11.792;2022-11-18T04:06:32;2.40;;;2.20;;
2656;SDS011;1338;48.176;11.792;2022-11-18T04:09:05;2.17;;;2.03;;
2656;SDS011;1338;48.176;11.792;2022-11-18T04:11:49;2.10;;;1.90;;
2656;SDS011;1338;48.176;11.792;2022-11-18T04:14:31;2.77;;;1.73;;
2656;SDS011;1338;48.176;11.792;2022-11-18T04:17:05;2.43;;;1.70;;
2656;SDS011;1338;48.176;11.792;2022-11-18T04:19:35;2.47;;;2.27;;
2656;SDS011;1338;48.176;11.792;2022-11-18T04:22:04;2.40;;;2.20;;
2656;SDS011;1338;48.176;11.792;2022-11-18T04:24:32;2.07;;;1.90;;
2656;SDS011;1338;48.176;11.792;2022-11-18T04:27:01;2.63;;;2.07;;
2656;SDS011;1338;48.176;11.792;2022-11-18T04:29:30;1.80;;;1.70;;
2656;SDS011;1338;48.176;11.792;2022-11-18T04:31:59;1.73;;;1.63;;
2656;SDS011;1338;48.176;11.792;2022-11-18T04:34:29;1.60;;;1.50;;
2656;SDS011;1338;48.176;11.792;2022-11-18T04:36:57;1.40;;;1.30;;
2656;SDS011;1338;48.176;11.792;2022-11-18T04:39:26;1.23;;;1.13;;
2656;SDS011;1338;48.176;11.792;2022-11-18T04:41:54;2.60;;;1.10;;
2656;SDS011;1338;48.176;11.792;2022-11-18T04:44:22;1.20;;;1.10;;
2656;SDS011;1338;48.176;11.792;2022-11-18T04:46:52;1.93;;;1.30;;
2656;SDS011;1338;48.176;11.792;2022-11-18T04:49:21;1.10;;;1.00;;
2656;SDS011;1338;48.176;11.792;2022-11-18T04:51:51;1.20;;;1.00;;
2656;SDS011;1338;48.176;11.792;2022-11-18T04:54:20;1.10;;;1.00;;
2656;SDS011;1338;48.176;11.792;2022-11-18T04:56:48;1.30;;;1.20;;
2656;SDS011;1338;48.176;11.792;2022-11-18T04:59:17;1.20;;;1.10;;
2656;SDS011;1338;48.176;11.792;2022-11-18T05:01:48;1.10;;;0.90;;
2656;SDS011;1338;48.176;11.792;2022-11-18T05:04:17;1.20;;;1.10;;
2656;SDS011;1338;48.176;11.792;2022-11-18T05:06:47;1.17;;;1.00;;
2656;SDS011;1338;48.176;11.792;2022-11-18T05:09:17;1.33;;;1.20;;
2656;SDS011;1338;48.176;11.792;2022-11-18T05:11:46;1.27;;;1.17;;
2656;SDS011;1338;48.176;11.792;2022-11-18T05:14:32;1.40;;;1.30;;
2656;SDS011;1338;48.176;11.792;2022-11-18T05:17:01;1.43;;;1.20;;
2656;SDS011;1338;48.176;11.792;2022-11-18T05:19:31;1.20;;;1.10;;
2656;SDS011;1338;48.176;11.792;2022-11-18T05:21:59;1.33;;;1.23;;
2656;SDS011;1338;48.176;11.792;2022-11-18T05:24:29;1.43;;;1.10;;
2656;SDS011;1338;48.176;11.792;2022-11-18T05:26:57;1.20;;;1.10;;
2656;SDS011;1338;48.176;11.792;2022-11-18T05:29:25;1.27;;;1.17;;
2656;SDS011;1338;48.176;11.792;2022-11-18T05:31:53;1.80;;;1.37;;
2656;SDS011;1338;48.176;11.792;2022-11-18T05:34:21;1.10;;;1.00;;
2656;SDS011;1338;48.176;11.792;2022-11-18T05:36:50;1.27;;;1.17;;
2656;SDS011;1338;48.176;11.792;2022-11-18T05:39:18;1.20;;;1.10;;
2656;SDS011;1338;48.176;11.792;2022-11-18T05:41:48;1.10;;;1.00;;
2656;SDS011;1338;48.176;11.792;2022-11-18T05:44:33;1.77;;;1.17;;
2656;SDS011;1338;48.176;11.792;2022-11-18T05:47:02;2.03;;;1.57;;
2656;SDS011;1338;48.176;11.792;2022-11-18T05:49:30;1.53;;;1.27;;
2656;SDS011;1338;48.176;11.792;2022-11-18T05:51:58;1.53;;;1.40;;
2656;SDS011;1338;48.176;11.792;2022-11-18T05:54:26;1.30;;;1.20;;
2656;SDS011;1338;48.176;11.792;2022-11-18T05:56:56;1.30;;;1.20;;
2656;SDS011;1338;48.176;11.792;2022-11-18T05:59:24;1.90;;;1.30;;
2656;SDS011;1338;48.176;11.792;2022-11-18T06:01:53;1.43;;;1.30;;
2656;SDS011;1338;48.176;11.792;2022-11-18T06:04:25;1.30;;;1.20;;
2656;SDS011;1338;48.176;11.792;2022-11-18T06:06:57;1.53;;;1.13;;
2656;SDS011;1338;48.176;11.792;2022-11-18T06:09:30;2.13;;;1.10;;
2656;SDS011;1338;48.176;11.792;2022-11-18T06:12:03;1.70;;;1.20;;
2656;SDS011;1338;48.176;11.792;2022-11-18T06:14:34;1.40;;;1.10;;
2656;SDS011;1338;48.176;11.792;2022-11-18T06:17:07;1.30;;;1.00;;
2656;SDS011;1338;48.176;11.792;2022-11-18T06:19:41;1.83;;;1.10;;
2656;SDS011;1338;48.176;11.792;2022-11-18T06:22:09;1.40;;;1.10;;
2656;SDS011;1338;48.176;11.792;2022-11-18T06:24:38;1.30;;;1.20;;
2656;SDS011;1338;48.176;11.792;2022-11-18T06:27:08;1.20;;;1.10;;
2656;SDS011;1338;48.176;11.792;2022-11-18T06:29:36;1.23;;;1.13;;
2656;SDS011;1338;48.176;11.792;2022-11-18T06:32:04;1.77;;;1.10;;
2656;SDS011;1338;48.176;11.792;2022-11-18T06:34:33;1.37;;;1.27;;
2656;SDS011;1338;48.176;11.792;2022-11-18T06:37:13;1.33;;;1.20;;
2656;SDS011;1338;48.176;11.792;2022-11-18T06:39:42;1.30;;;1.20;;
2656;SDS011;1338;48.176;11.792;2022-11-18T06:42:12;1.40;;;1.30;;
2656;SDS011;1338;48.176;11.792;2022-11-18T06:45:00;1.27;;;1.17;;
2656;SDS011;1338;48.176;11.792;2022-11-18T06:47:28;1.20;;;1.10;;
2656;SDS011;1338;48.176;11.792;2022-11-18T06:49:56;1.67;;;1.20;;
2656;SDS011;1338;48.176;11.792;2022-11-18T06:52:24;1.47;;;1.03;;
2656;SDS011;1338;48.176;11.792;2022-11-18T06:54:52;1.30;;;1.20;;
2656;SDS011;1338;48.176;11.792;2022-11-18T06:57:22;1.60;;;1.20;;
2656;SDS011;1338;48.176;11.792;2022-11-18T06:59:50;1.33;;;1.20;;
2656;SDS011;1338;48.176;11.792;2022-11-18T07:02:24;1.90;;;1.33;;
2656;SDS011;1338;48.176;11.792;2022-11-18T07:04:52;1.30;;;1.20;;
2656;SDS011;1338;48.176;11.792;2022-11-18T07:07:20;1.60;;;1.50;;
2656;SDS011;1338;48.176;11.792;2022-11-18T07:09:49;1.50;;;1.40;;
2656;SDS011;1338;48.176;11.792;2022-11-18T07:12:17;1.60;;;1.50;;
2656;SDS011;1338;48.176;11.792;2022-11-18T07:14:46;1.40;;;1.30;;
2656;SDS011;1338;48.176;11.792;2022-11-18T07:17:14;1.70;;;1.30;;
2656;SDS011;1338;48.176;11.792;2022-11-18T07:19:43;2.40;;;1.30;;
2656;SDS011;1338;48.176;11.792;2022-11-18T07:22:11;1.20;;;1.10;;
2656;SDS011;1338;48.176;11.792;2022-11-18T07:24:39;1.77;;;1.03;;
2656;SDS011;1338;48.176;11.792;2022-11-18T07:27:08;1.13;;;1.03;;
2656;SDS011;1338;48.176;11.792;2022-11-18T07:29:36;1.27;;;1.10;;
2656;SDS011;1338;48.176;11.792;2022-11-18T07:32:06;1.20;;;1.10;;
2656;SDS011;1338;48.176;11.792;2022-11-18T07:34:34;1.87;;;1.10;;
2656;SDS011;1338;48.176;11.792;2022-11-18T07:37:02;1.23;;;1.13;;
2656;SDS011;1338;48.176;11.792;2022-11-18T07:39:30;1.10;;;1.00;;
2656;SDS011;1338;48.176;11.792;2022-11-18T07:41:59;1.40;;;1.30;;
2656;SDS011;1338;48.176;11.792;2022-11-18T07:44:27;1.40;;;1.30;;
2656;SDS011;1338;48.176;11.792;2022-11-18T07:46:55;1.40;;;1.30;;
2656;SDS011;1338;48.176;11.792;2022-11-18T07:49:24;1.90;;;1.50;;
2656;SDS011;1338;48.176;11.792;2022-11-18T07:51:53;1.60;;;1.50;;
2656;SDS011;1338;48.176;11.792;2022-11-18T07:54:21;2.90;;;1.30;;
2656;SDS011;1338;48.176;11.792;2022-11-18T07:56:49;1.93;;;1.70;;
2656;SDS011;1338;48.176;11.792;2022-11-18T07:59:17;1.97;;;1.87;;
2656;SDS011;1338;48.176;11.792;2022-11-18T08:01:46;2.00;;;1.90;;
2656;SDS011;1338;48.176;11.792;2022-11-18T08:04:14;2.10;;;2.00;;
2656;SDS011;1338;48.176;11.792;2022-11-18T08:06:44;1.70;;;1.60;;
2656;SDS011;1338;48.176;11.792;2022-11-18T08:09:13;1.80;;;1.70;;
2656;SDS011;1338;48.176;11.792;2022-11-18T08:11:41;1.90;;;1.63;;
2656;SDS011;1338;48.176;11.792;2022-11-18T08:14:09;1.87;;;1.77;;
2656;SDS011;1338;48.176;11.792;2022-11-18T08:16:38;1.80;;;1.70;;
2656;SDS011;1338;48.176;11.792;2022-11-18T08:19:06;2.40;;;2.20;;
2656;SDS011;1338;48.176;11.792;2022-11-18T08:21:34;1.90;;;1.80;;
2656;SDS011;1338;48.176;11.792;2022-11-18T08:24:04;2.10;;;1.90;;
2656;SDS011;1338;48.176;11.792;2022-11-18T08:26:33;2.07;;;1.90;;
2656;SDS011;1338;48.176;11.792;2022-11-18T08:29:01;2.00;;;1.90;;
2656;SDS011;1338;48.176;11.792;2022-11-18T08:31:29;2.50;;;2.30;;
2656;SDS011;1338;48.176;11.792;2022-11-18T08:33:58;1.97;;;1.77;;
2656;SDS011;1338;48.176;11.792;2022-11-18T08:36:28;1.60;;;1.50;;
2656;SDS011;1338;48.176;11.792;2022-11-18T08:38:58;1.63;;;1.53;;
2656;SDS011;1338;48.176;11.792;2022-11-18T08:41:30;1.60;;;1.50;;
2656;SDS011;1338;48.176;11.792;2022-11-18T08:44:25;1.60;;;1.50;;
2656;SDS011;1338;48.176;11.792;2022-11-18T08:46:53;2.07;;;1.50;;
2656;SDS011;1338;48.176;11.792;2022-11-18T08:49:22;1.73;;;1.63;;
2656;SDS011;1338;48.176;11.792;2022-11-18T08:51:57;1.90;;;1.80;;
2656;SDS011;1338;48.176;11.792;2022-11-18T08:54:26;3.70;;;2.13;;
2656;SDS011;1338;48.176;11.792;2022-11-18T08:56:54;2.37;;;2.17;;
2656;SDS011;1338;48.176;11.792;2022-11-18T08:59:22;2.20;;;2.00;;
2656;SDS011;1338;48.176;11.792;2022-11-18T09:02:28;2.30;;;2.10;;
2656;SDS011;1338;48.176;11.792;2022-11-18T09:05:15;2.27;;;2.13;;
2656;SDS011;1338;48.176;11.792;2022-11-18T09:08:02;2.70;;;2.50;;
2656;SDS011;1338;48.176;11.792;2022-11-18T09:11:07;3.57;;;2.13;;
2656;SDS011;1338;48.176;11.792;2022-11-18T09:14:13;2.03;;;1.93;;
2656;SDS011;1338;48.176;11.792;2022-11-18T09:17:02;2.13;;;1.73;;
2656;SDS011;1338;48.176;11.792;2022-11-18T09:19:32;2.20;;;1.90;;
2656;SDS011;1338;48.176;11.792;2022-11-18T09:22:37;1.60;;;1.50;;
2656;SDS011;1338;48.176;11.792;2022-11-18T09:25:41;1.80;;;1.70;;
2656;SDS011;1338;48.176;11.792;2022-11-18T09:28:29;2.30;;;1.77;;
2656;SDS011;1338;48.176;11.792;2022-11-18T09:30:58;1.87;;;1.47;;
2656;SDS011;1338;48.176;11.792;2022-11-18T09:33:30;1.50;;;1.40;;
2656;SDS011;1338;48.176;11.792;2022-11-18T09:35:59;1.60;;;1.50;;
2656;SDS011;1338;48.176;11.792;2022-11-18T09:38:28;1.30;;;1.20;;
2656;SDS011;1338;48.176;11.792;2022-11-18T09:41:43;1.27;;;1.17;;
2656;SDS011;1338;48.176;11.792;2022-11-18T09:44:38;1.10;;;1.00;;
2656;SDS011;1338;48.176;11.792;2022-11-18T09:47:57;1.37;;;1.27;;
2656;SDS011;1338;48.176;11.792;2022-11-18T09:50:28;1.37;;;1.27;;
2656;SDS011;1338;48.176;11.792;2022-11-18T09:53:18;2.00;;;1.40;;
2656;SDS011;1338;48.176;11.792;2022-11-18T09:55:48;1.20;;;1.10;;
2656;SDS011;1338;48.176;11.792;2022-11-18T09:58:20;1.10;;;0.93;;
2656;SDS011;1338;48.176;11.792;2022-11-18T10:00:53;1.30;;;1.20;;
2656;SDS011;1338;48.176;11.792;2022-11-18T10:03:22;1.47;;;1.37;;
2656;SDS011;1338;48.176;11.792;2022-11-18T10:05:54;1.63;;;1.50;;
2656;SDS011;1338;48.176;11.792;2022-11-18T10:08:30;1.17;;;1.07;;
2656;SDS011;1338;48.176;11.792;2022-11-18T10:11:04;1.20;;;1.10;;
2656;SDS011;1338;48.176;11.792;2022-11-18T10:13:40;1.20;;;1.10;;
2656;SDS011;1338;48.176;11.792;2022-11-18T10:16:21;1.77;;;1.60;;
2656;SDS011;1338;48.176;11.792;2022-11-18T10:19:00;1.83;;;1.50;;
2656;SDS011;1338;48.176;11.792;2022-11-18T10:21:41;2.17;;;1.27;;
2656;SDS011;1338;48.176;11.792;2022-11-18T10:24:21;1.30;;;1.20;;
2656;SDS011;1338;48.176;11.792;2022-11-18T10:26:53;1.40;;;1.30;;
2656;SDS011;1338;48.176;11.792;2022-11-18T10:29:22;1.67;;;1.50;;
2656;SDS011;1338;48.176;11.792;2022-11-18T10:31:52;1.20;;;1.10;;
2656;SDS011;1338;48.176;11.792;2022-11-18T10:34:29;1.30;;;1.20;;
2656;SDS011;1338;48.176;11.792;2022-11-18T10:36:58;1.63;;;1.53;;
2656;SDS011;1338;48.176;11.792;2022-11-18T10:39:29;1.40;;;1.30;;
2656;SDS011;1338;48.176;11.792;2022-11-18T10:41:59;1.30;;;1.20;;
2656;SDS011;1338;48.176;11.792;2022-11-18T10:44:30;1.30;;;1.20;;
2656;SDS011;1338;48.176;11.792;2022-11-18T10:47:27;1.43;;;1.33;;
2656;SDS011;1338;48.176;11.792;2022-11-18T10:49:58;1.40;;;1.30;;
2656;SDS011;1338;48.176;11.792;2022-11-18T10:52:28;1.40;;;1.23;;
2656;SDS011;1338;48.176;11.792;2022-11-18T10:57:52;3.13;;;1.50;;
2656;SDS011;1338;48.176;11.792;2022-11-18T11:00:33;1.37;;;1.27;;
2656;SDS011;1338;48.176;11.792;2022-11-18T11:03:21;1.40;;;1.30;;
2656;SDS011;1338;48.176;11.792;2022-11-18T11:06:13;1.43;;;1.17;;
2656;SDS011;1338;48.176;11.792;2022-11-18T11:08:51;1.20;;;1.10;;
2656;SDS011;1338;48.176;11.792;2022-11-18T11:11:24;2.63;;;1.40;;
2656;SDS011;1338;48.176;11.792;2022-11-18T11:13:55;1.40;;;1.30;;
2656;SDS011;1338;48.176;11.792;2022-11-18T11:16:28;1.40;;;1.30;;
2656;SDS011;1338;48.176;11.792;2022-11-18T11:18:59;2.10;;;1.50;;
2656;SDS011;1338;48.176;11.792;2022-11-18T11:21:30;1.30;;;1.20;;
2656;SDS011;1338;48.176;11.792;2022-11-18T11:23:58;1.40;;;1.30;;
2656;SDS011;1338;48.176;11.792;2022-11-18T11:26:30;1.40;;;1.30;;
2656;SDS011;1338;48.176;11.792;2022-11-18T11:29:27;1.73;;;1.63;;
2656;SDS011;1338;48.176;11.792;2022-11-18T11:32:05;1.53;;;1.40;;
2656;SDS011;1338;48.176;11.792;2022-11-18T11:34:40;4.03;;;1.80;;
2656;SDS011;1338;48.176;11.792;2022-11-18T11:37:14;1.60;;;1.50;;
2656;SDS011;1338;48.176;11.792;2022-11-18T11:39:50;1.50;;;1.30;;
2656;SDS011;1338;48.176;11.792;2022-11-18T11:42:33;1.37;;;1.27;;
2656;SDS011;1338;48.176;11.792;2022-11-18T11:45:16;2.33;;;1.30;;
2656;SDS011;1338;48.176;11.792;2022-11-18T11:47:58;1.50;;;1.40;;
2656;SDS011;1338;48.176;11.792;2022-11-18T11:50:40;1.90;;;1.80;;
2656;SDS011;1338;48.176;11.792;2022-11-18T11:53:52;2.33;;;2.13;;
2656;SDS011;1338;48.176;11.792;2022-11-18T11:56:38;3.20;;;2.90;;
2656;SDS011;1338;48.176;11.792;2022-11-18T11:59:15;3.23;;;2.30;;
2656;SDS011;1338;48.176;11.792;2022-11-18T12:02:01;2.60;;;2.40;;
2656;SDS011;1338;48.176;11.792;2022-11-18T12:04:41;2.40;;;2.20;;
2656;SDS011;1338;48.176;11.792;2022-11-18T12:07:14;2.07;;;1.97;;
2656;SDS011;1338;48.176;11.792;2022-11-18T12:12:45;2.00;;;1.90;;
2656;SDS011;1338;48.176;11.792;2022-11-18T12:15:27;2.00;;;1.70;;
2656;SDS011;1338;48.176;11.792;2022-11-18T12:18:08;3.00;;;1.70;;
2656;SDS011;1338;48.176;11.792;2022-11-18T12:20:42;1.40;;;1.30;;
2656;SDS011;1338;48.176;11.792;2022-11-18T12:23:14;1.43;;;1.33;;
2656;SDS011;1338;48.176;11.792;2022-11-18T12:25:51;1.60;;;1.50;;
2656;SDS011;1338;48.176;11.792;2022-11-18T12:28:22;1.60;;;1.50;;
2656;SDS011;1338;48.176;11.792;2022-11-18T12:34:03;1.80;;;1.70;;
2656;SDS011;1338;48.176;11.792;2022-11-18T12:36:44;1.43;;;1.33;;
2656;SDS011;1338;48.176;11.792;2022-11-18T12:45:45;1.70;;;1.60;;
2656;SDS011;1338;48.176;11.792;2022-11-18T12:48:31;2.07;;;1.90;;
2656;SDS011;1338;48.176;11.792;2022-11-18T12:51:01;2.60;;;1.47;;
2656;SDS011;1338;48.176;11.792;2022-11-18T12:53:57;1.50;;;1.40;;
2656;SDS011;1338;48.176;11.792;2022-11-18T12:56:26;1.47;;;1.37;;
2656;SDS011;1338;48.176;11.792;2022-11-18T12:58:57;1.77;;;1.47;;
2656;SDS011;1338;48.176;11.792;2022-11-18T13:01:28;1.60;;;1.50;;
2656;SDS011;1338;48.176;11.792;2022-11-18T13:04:07;1.80;;;1.70;;
2656;SDS011;1338;48.176;11.792;2022-11-18T13:06:38;1.50;;;1.40;;
2656;SDS011;1338;48.176;11.792;2022-11-18T13:09:11;2.57;;;1.53;;
2656;SDS011;1338;48.176;11.792;2022-11-18T13:11:44;2.40;;;1.30;;
2656;SDS011;1338;48.176;11.792;2022-11-18T13:14:15;1.50;;;1.40;;
2656;SDS011;1338;48.176;11.792;2022-11-18T13:17:02;1.30;;;1.20;;
2656;SDS011;1338;48.176;11.792;2022-11-18T13:20:18;1.47;;;1.37;;
2656;SDS011;1338;48.176;11.792;2022-11-18T13:22:48;1.43;;;1.33;;
2656;SDS011;1338;48.176;11.792;2022-11-18T13:25:35;1.33;;;1.23;;
2656;SDS011;1338;48.176;11.792;2022-11-18T13:28:05;1.30;;;1.20;;
2656;SDS011;1338;48.176;11.792;2022-11-18T13:30:42;1.77;;;1.27;;
2656;SDS011;1338;48.176;11.792;2022-11-18T13:33:17;1.60;;;1.40;;
2656;SDS011;1338;48.176;11.792;2022-11-18T13:35:47;1.37;;;1.27;;
2656;SDS011;1338;48.176;11.792;2022-11-18T13:38:17;1.40;;;1.30;;
2656;SDS011;1338;48.176;11.792;2022-11-18T13:40:54;1.30;;;1.20;;
2656;SDS011;1338;48.176;11.792;2022-11-18T13:43:33;1.40;;;1.10;;
2656;SDS011;1338;48.176;11.792;2022-11-18T13:46:04;1.40;;;1.10;;
2656;SDS011;1338;48.176;11.792;2022-11-18T13:48:36;1.40;;;1.30;;
2656;SDS011;1338;48.176;11.792;2022-11-18T13:51:10;1.43;;;1.33;;
2656;SDS011;1338;48.176;11.792;2022-11-18T13:53:39;1.30;;;1.20;;
2656;SDS011;1338;48.176;11.792;2022-11-18T13:56:13;1.60;;;1.10;;
2656;SDS011;1338;48.176;11.792;2022-11-18T13:58:50;1.77;;;1.67;;
2656;SDS011;1338;48.176;11.792;2022-11-18T14:01:42;1.40;;;1.30;;
2656;SDS011;1338;48.176;11.792;2022-11-18T14:04:15;1.40;;;1.20;;
2656;SDS011;1338;48.176;11.792;2022-11-18T14:06:47;1.73;;;1.03;;
2656;SDS011;1338;48.176;11.792;2022-11-18T14:09:17;1.90;;;1.20;;
2656;SDS011;1338;48.176;11.792;2022-11-18T14:11:59;1.20;;;1.10;;
2656;SDS011;1338;48.176;11.792;2022-11-18T14:14:30;1.30;;;1.20;;
2656;SDS011;1338;48.176;11.792;2022-11-18T14:17:04;1.30;;;1.10;;
2656;SDS011;1338;48.176;11.792;2022-11-18T14:19:43;1.20;;;1.10;;
2656;SDS011;1338;48.176;11.792;2022-11-18T14:22:15;1.70;;;1.20;;
2656;SDS011;1338;48.176;11.792;2022-11-18T14:24:52;1.20;;;1.10;;
2656;SDS011;1338;48.176;11.792;2022-11-18T14:27:35;1.70;;;1.57;;
2656;SDS011;1338;48.176;11.792;2022-11-18T14:33:02;2.13;;;1.67;;
2656;SDS011;1338;48.176;11.792;2022-11-18T14:35:40;2.10;;;1.90;;
2656;SDS011;1338;48.176;11.792;2022-11-18T14:38:15;1.80;;;1.70;;
2656;SDS011;1338;48.176;11.792;2022-11-18T14:41:06;2.30;;;2.10;;
2656;SDS011;1338;48.176;11.792;2022-11-18T14:43:36;2.50;;;2.30;;
2656;SDS011;1338;48.176;11.792;2022-11-18T14:46:04;2.40;;;2.20;;
2656;SDS011;1338;48.176;11.792;2022-11-18T14:48:38;2.93;;;2.63;;
2656;SDS011;1338;48.176;11.792;2022-11-18T14:51:08;2.80;;;2.60;;
2656;SDS011;1338;48.176;11.792;2022-11-18T14:53:40;2.70;;;2.50;;
2656;SDS011;1338;48.176;11.792;2022-11-18T14:56:11;2.83;;;2.63;;
2656;SDS011;1338;48.176;11.792;2022-11-18T14:58:44;2.97;;;2.77;;
2656;SDS011;1338;48.176;11.792;2022-11-18T15:01:12;3.83;;;3.53;;
2656;SDS011;1338;48.176;11.792;2022-11-18T15:03:41;3.87;;;3.57;;
2656;SDS011;1338;48.176;11.792;2022-11-18T15:06:11;4.30;;;3.67;;
2656;SDS011;1338;48.176;11.792;2022-11-18T15:08:41;3.83;;;3.20;;
2656;SDS011;1338;48.176;11.792;2022-11-18T15:11:11;3.20;;;3.00;;
2656;SDS011;1338;48.176;11.792;2022-11-18T15:13:40;3.23;;;2.93;;
2656;SDS011;1338;48.176;11.792;2022-11-18T15:16:10;3.40;;;3.10;;
2656;SDS011;1338;48.176;11.792;2022-11-18T15:18:41;3.73;;;3.43;;
2656;SDS011;1338;48.176;11.792;2022-11-18T15:21:09;3.60;;;3.30;;
2656;SDS011;1338;48.176;11.792;2022-11-18T15:23:37;3.90;;;3.50;;
2656;SDS011;1338;48.176;11.792;2022-11-18T15:26:12;4.27;;;3.97;;
2656;SDS011;1338;48.176;11.792;2022-11-18T15:28:45;4.10;;;3.70;;
2656;SDS011;1338;48.176;11.792;2022-11-18T15:31:14;4.30;;;4.00;;
2656;SDS011;1338;48.176;11.792;2022-11-18T15:33:43;5.03;;;4.63;;
2656;SDS011;1338;48.176;11.792;2022-11-18T15:36:12;4.50;;;4.10;;
2656;SDS011;1338;48.176;11.792;2022-11-18T15:38:42;4.10;;;3.80;;
2656;SDS011;1338;48.176;11.792;2022-11-18T15:41:13;4.47;;;3.77;;
2656;SDS011;1338;48.176;11.792;2022-11-18T15:43:44;3.17;;;2.97;;
2656;SDS011;1338;48.176;11.792;2022-11-18T15:46:13;3.63;;;3.33;;
2656;SDS011;1338;48.176;11.792;2022-11-18T15:48:41;4.07;;;3.70;;
2656;SDS011;1338;48.176;11.792;2022-11-18T15:51:10;4.30;;;3.53;;
2656;SDS011;1338;48.176;11.792;2022-11-18T15:53:38;3.17;;;2.90;;
2656;SDS011;1338;48.176;11.792;2022-11-18T15:56:15;2.63;;;2.43;;
2656;SDS011;1338;48.176;11.792;2022-11-18T15:58:51;2.83;;;2.57;;
2656;SDS011;1338;48.176;11.792;2022-11-18T16:01:23;3.60;;;2.70;;
2656;SDS011;1338;48.176;11.792;2022-11-18T16:03:52;3.10;;;2.90;;
2656;SDS011;1338;48.176;11.792;2022-11-18T16:06:20;2.63;;;2.43;;